Time;durP1;ratioP1;P1;durP2;ratioP2;P2;SDS_P1;SDS_P2;PMS_P1;PMS_P2;Temp;Humidity;BMP_temperature;BMP_pressure;BME280_temperature;BME280_humidity;BME280_pressure;Samples;Min_cycle;Max_cycle;Signal;HPM_P1;HPM_P2
2022/03/18 05:33:09;;;;;;;;;28.25;22.75;;;;;8.85;55.92;103418.91;5013795;28;45452;-73
2022/03/18 05:35:35;;;;;;;;;25.00;21.50;;;;;8.84;56.01;103427.84;5013674;28;45472;-72
2022/03/18 05:38:00;;;;;;;;;26.75;20.50;;;;;8.73;56.27;103419.78;5014043;28;45410;-73
2022/03/18 05:40:26;;;;;;;;;19.75;19.75;;;;;8.68;56.11;103416.16;5014100;28;45329;-72
2022/03/18 05:42:51;;;;;;;;;22.75;21.00;;;;;8.76;55.73;103438.53;5013950;28;45287;-72
2022/03/18 05:45:17;;;;;;;;;25.00;19.00;;;;;8.71;55.74;103425.13;4998207;28;47087;-73
2022/03/18 05:47:42;;;;;;;;;21.00;16.75;;;;;8.74;55.88;103426.91;5017065;28;45333;-71
2022/03/18 05:50:08;;;;;;;;;25.50;21.25;;;;;8.73;55.54;103436.72;5017672;28;45392;-73
2022/03/18 05:52:35;;;;;;;;;29.25;21.25;;;;;8.75;55.38;103441.19;5017432;28;45323;-73
2022/03/18 05:55:00;;;;;;;;;23.75;19.75;;;;;8.69;55.39;103426.88;5017297;28;48026;-71
2022/03/18 05:57:27;;;;;;;;;22.00;19.00;;;;;8.65;55.58;103406.38;5016127;28;45347;-73
2022/03/18 05:59:54;;;;;;;;;22.50;19.50;;;;;8.72;55.23;103426.00;5015576;28;45472;-72
2022/03/18 06:02:20;;;;;;;;;18.50;18.50;;;;;8.75;55.28;103423.38;5017079;28;45234;-72
2022/03/18 06:04:46;;;;;;;;;21.50;19.25;;;;;8.76;54.77;103426.94;5017181;28;45327;-72
2022/03/18 06:07:13;;;;;;;;;28.00;20.25;;;;;8.72;54.71;103420.66;5017800;28;45288;-73
2022/03/18 06:12:22;;;;;;;;;20.50;18.25;;;;;8.76;54.96;103430.50;5017229;28;45457;-72
2022/03/18 06:14:48;;;;;;;;;26.75;21.75;;;;;8.75;54.10;103436.72;5017343;28;45648;-75
2022/03/18 06:17:13;;;;;;;;;26.25;21.75;;;;;8.78;54.50;103449.19;5016692;28;45346;-74
2022/03/18 06:19:39;;;;;;;;;24.00;19.25;;;;;8.76;54.16;103448.31;5018006;28;45339;-73
2022/03/18 06:22:05;;;;;;;;;24.00;20.25;;;;;8.70;53.83;103442.03;5017372;28;45328;-76
2022/03/18 06:24:30;;;;;;;;;22.00;17.25;;;;;8.60;54.48;103415.25;5017388;28;46377;-73
2022/03/18 06:26:56;;;;;;;;;24.25;20.25;;;;;8.56;54.39;103408.09;5017970;28;45353;-74
2022/03/18 06:29:22;;;;;;;;;20.25;19.50;;;;;8.58;54.61;103423.28;5017391;28;45561;-76
2022/03/18 06:31:49;;;;;;;;;23.00;21.25;;;;;8.72;54.27;103442.06;5027115;28;45400;-77
2022/03/18 06:34:15;;;;;;;;;24.50;19.50;;;;;8.67;54.17;103443.81;5037041;28;46378;-84
2022/03/18 06:36:41;;;;;;;;;28.50;23.75;;;;;8.51;54.44;103416.09;5057039;28;45277;-73
2022/03/18 06:39:08;;;;;;;;;22.50;20.25;;;;;8.69;54.27;103450.06;5057037;28;45499;-74
2022/03/18 06:41:34;;;;;;;;;30.00;21.75;;;;;8.61;53.92;103439.31;5056953;28;45601;-74
2022/03/18 06:43:59;;;;;;;;;24.50;22.25;;;;;8.67;54.13;103452.75;5056561;28;46009;-72
2022/03/18 06:46:25;;;;;;;;;30.00;22.50;;;;;8.69;54.41;103455.41;5056873;28;45339;-76
2022/03/18 06:48:50;;;;;;;;;22.00;19.25;;;;;8.69;54.43;103450.06;5055676;28;45472;-73
2022/03/18 06:51:16;;;;;;;;;26.75;22.00;;;;;8.63;54.17;103447.34;5056271;28;45353;-75
2022/03/18 06:53:42;;;;;;;;;23.25;20.00;;;;;8.69;54.34;103450.94;5056029;28;46154;-73
2022/03/18 06:56:07;;;;;;;;;34.50;27.75;;;;;8.64;54.11;103438.44;5034168;28;45269;-74
2022/03/18 06:58:34;;;;;;;;;20.00;14.00;;;;;8.68;54.13;103451.81;5053448;28;45323;-74
2022/03/18 07:01:00;;;;;;;;;24.25;23.25;;;;;8.61;54.07;103442.00;5056473;28;45293;-74
2022/03/18 07:03:25;;;;;;;;;29.75;20.50;;;;;8.60;54.44;103450.91;5034345;28;47653;-76
2022/03/18 07:05:51;;;;;;;;;28.00;23.25;;;;;8.52;54.21;103436.59;5046924;28;45247;-75
2022/03/18 07:08:16;;;;;;;;;26.25;22.75;;;;;8.55;54.39;103451.78;5056487;28;45236;-75
2022/03/18 07:10:42;;;;;;;;;28.75;22.75;;;;;8.59;54.87;103451.78;5056668;28;45724;-74
2022/03/18 07:13:07;;;;;;;;;23.75;20.00;;;;;8.59;54.94;103445.56;5056290;28;46218;-75
2022/03/18 07:15:33;;;;;;;;;21.75;19.25;;;;;8.65;54.64;103458.97;5056235;28;45378;-74
2022/03/18 07:17:59;;;;;;;;;31.25;25.00;;;;;8.56;54.78;103441.09;5055213;28;45828;-75
2022/03/18 07:20:33;;;;;;;;;32.50;24.00;;;;;8.65;53.92;103453.63;5056031;28;45454;-75
2022/03/18 07:23:03;;;;;;;;;20.50;20.50;;;;;8.63;53.82;103450.94;5056005;28;46863;-73
2022/03/18 07:25:28;;;;;;;;;23.50;23.00;;;;;8.65;53.96;103454.50;5037631;28;45332;-75
2022/03/18 07:27:55;;;;;;;;;32.75;24.00;;;;;8.61;54.15;103441.09;5055919;28;45276;-73
2022/03/18 07:30:20;;;;;;;;;24.25;23.25;;;;;8.72;54.29;103453.66;5056017;28;45327;-75
2022/03/18 07:32:46;;;;;;;;;28.25;28.25;;;;;8.64;54.60;103439.34;5055159;28;46072;-74
2022/03/18 07:35:11;;;;;;;;;25.50;21.50;;;;;8.72;54.14;103444.72;5056217;28;45229;-75
2022/03/18 07:37:37;;;;;;;;;29.00;24.75;;;;;8.81;53.77;103459.94;5055867;28;45647;-73
2022/03/18 07:40:03;;;;;;;;;28.50;24.00;;;;;8.83;54.15;103459.06;5056104;28;45987;-73
2022/03/18 07:42:49;;;;;;;;;31.25;26.50;;;;;8.84;53.57;103447.47;5055543;28;46324;-75
2022/03/18 07:45:18;;;;;;;;;24.50;21.75;;;;;8.79;52.81;103438.50;5055948;28;45475;-74
2022/03/18 07:47:44;;;;;;;;;25.75;24.25;;;;;8.82;53.74;103438.53;5055630;28;45331;-73
2022/03/18 07:50:09;;;;;;;;;23.75;23.75;;;;;8.88;53.24;103443.00;5055782;28;45335;-75
2022/03/18 07:52:35;;;;;;;;;26.50;21.50;;;;;8.97;54.05;103460.00;5054301;28;45937;-77
2022/03/18 07:55:01;;;;;;;;;28.25;21.00;;;;;9.07;54.48;103458.25;5053593;28;45465;-75
2022/03/18 07:57:27;;;;;;;;;29.00;23.25;;;;;9.16;53.31;103454.72;5054559;28;45430;-73
2022/03/18 07:59:53;;;;;;;;;33.50;27.25;;;;;9.19;52.84;103454.72;5036227;28;45675;-74
2022/03/18 08:02:18;;;;;;;;;21.00;20.75;;;;;9.31;53.58;103463.69;5049337;28;46191;-76
2022/03/18 08:04:48;;;;;;;;;13.00;13.00;;;;;9.34;52.59;103455.69;5049131;28;45600;-74
2022/03/18 08:07:14;;;;;;;;;36.50;26.50;;;;;9.43;52.16;103470.88;5035758;28;45385;-75
2022/03/18 08:09:39;;;;;;;;;16.50;16.50;;;;;9.44;51.74;103461.94;5054115;28;45318;-75
2022/03/18 08:12:05;;;;;;;;;26.50;19.50;;;;;9.48;51.90;103472.66;5055401;28;46455;-75
2022/03/18 08:14:31;;;;;;;;;24.25;19.75;;;;;9.47;51.61;103460.16;5036875;28;45520;-76
2022/03/18 08:16:57;;;;;;;;;29.25;20.50;;;;;9.53;51.24;103467.28;5054942;28;45367;-75
2022/03/18 08:19:22;;;;;;;;;28.75;22.25;;;;;9.58;51.14;103464.63;5053854;28;45460;-74
2022/03/18 08:21:47;;;;;;;;;21.00;18.25;;;;;9.63;50.95;103477.13;5054635;28;46504;-76
2022/03/18 08:24:13;;;;;;;;;28.75;21.50;;;;;9.65;50.91;103469.09;5054226;28;45492;-74
2022/03/18 08:26:38;;;;;;;;;29.00;23.00;;;;;9.68;50.79;103466.44;5054694;28;45460;-75
2022/03/18 08:29:04;;;;;;;;;30.25;20.75;;;;;9.78;50.32;103487.00;5054465;28;45256;-74
2022/03/18 08:31:30;;;;;;;;;29.50;22.00;;;;;9.83;49.89;103483.41;5054375;28;45519;-74
2022/03/18 08:33:56;;;;;;;;;29.25;23.00;;;;;9.80;49.84;103475.38;5054098;28;45403;-76
2022/03/18 08:36:22;;;;;;;;;14.50;10.75;;;;;9.91;49.57;103491.47;5037515;28;45483;-75
2022/03/18 08:38:48;;;;;;;;;27.75;21.75;;;;;9.93;49.42;103488.78;5054853;28;45577;-74
2022/03/18 08:41:13;;;;;;;;;28.00;21.50;;;;;9.99;49.56;103476.28;5033171;28;46243;-76
2022/03/18 08:43:39;;;;;;;;;27.75;22.75;;;;;9.99;48.83;103472.72;5049201;28;45328;-74
2022/03/18 08:46:05;;;;;;;;;26.50;18.50;;;;;10.04;48.59;103474.47;5054715;28;45253;-74
2022/03/18 08:48:30;;;;;;;;;25.25;20.50;;;;;10.10;48.63;103478.97;5054103;28;45482;-76
2022/03/18 08:50:56;;;;;;;;;26.00;20.00;;;;;10.04;48.72;103463.75;5054047;28;45831;-73
2022/03/18 08:53:21;;;;;;;;;14.75;13.25;;;;;10.11;48.78;103457.53;5033761;28;46153;-75
2022/03/18 08:55:46;;;;;;;;;13.00;13.00;;;;;10.15;47.64;103475.38;5054934;28;45346;-77
2022/03/18 08:58:12;;;;;;;;;22.75;20.50;;;;;10.15;47.71;103461.09;5054266;28;45626;-75
2022/03/18 09:00:38;;;;;;;;;25.25;20.25;;;;;10.23;47.83;103470.94;5054669;28;45438;-77
2022/03/18 09:03:03;;;;;;;;;20.75;17.75;;;;;10.26;48.06;103469.16;5033255;28;45821;-74
2022/03/18 09:05:30;;;;;;;;;19.00;19.00;;;;;10.35;47.57;103474.50;5053960;28;45390;-75
2022/03/18 09:07:56;;;;;;;;;19.00;16.50;;;;;10.39;48.31;103474.50;5054011;28;45489;-76
2022/03/18 09:10:22;;;;;;;;;19.00;15.75;;;;;10.40;46.26;103467.34;5036080;28;47357;-76
2022/03/18 09:12:49;;;;;;;;;28.25;19.75;;;;;10.49;47.08;103472.69;5054166;28;45316;-76
2022/03/18 09:15:17;;;;;;;;;7.25;6.25;;;;;10.50;46.32;103461.06;5054353;28;45375;-75
2022/03/18 09:17:42;;;;;;;;;23.75;21.00;;;;;10.63;46.06;103481.63;5053913;28;45242;-78
2022/03/18 09:20:08;;;;;;;;;19.50;16.50;;;;;10.69;46.33;103476.22;5053078;28;46149;-75
2022/03/18 09:22:34;;;;;;;;;19.00;15.25;;;;;10.73;46.04;103469.94;5054489;28;45334;-77
2022/03/18 09:24:59;;;;;;;;;22.50;21.25;;;;;10.76;44.86;103479.78;5053878;28;45260;-75
2022/03/18 09:27:24;;;;;;;;;20.75;19.25;;;;;10.83;45.07;103471.69;5053965;28;45448;-75
2022/03/18 09:29:50;;;;;;;;;24.50;15.25;;;;;10.77;43.76;103468.16;5054021;28;46192;-74
2022/03/18 09:32:15;;;;;;;;;19.75;15.00;;;;;10.72;43.67;103460.09;5053076;28;45452;-75
2022/03/18 09:34:42;;;;;;;;;19.25;15.00;;;;;10.86;43.37;103477.06;5054297;28;45359;-76
2022/03/18 09:37:07;;;;;;;;;19.00;19.00;;;;;10.79;43.25;103463.69;5054164;28;45395;-75
2022/03/18 09:39:33;;;;;;;;;14.00;14.00;;;;;10.89;43.52;103473.44;5054266;28;46557;-75
2022/03/18 09:41:58;;;;;;;;;18.25;16.25;;;;;10.91;42.36;103477.94;5032689;28;45734;-74
2022/03/18 09:44:23;;;;;;;;;26.75;20.75;;;;;10.94;41.93;103468.97;5053749;28;45208;-75
2022/03/18 09:46:51;;;;;;;;;22.00;17.25;;;;;11.02;41.87;103471.63;5053559;28;45416;-74
2022/03/18 09:49:19;;;;;;;;;15.00;14.00;;;;;10.97;42.50;103453.75;5052863;28;45264;-74
2022/03/18 09:51:47;;;;;;;;;15.50;12.25;;;;;11.13;41.21;103467.13;5053617;28;45361;-73
2022/03/18 09:54:13;;;;;;;;;16.25;14.25;;;;;11.19;40.23;103473.34;5054053;28;45309;-75
2022/03/18 09:56:43;;;;;;;;;16.50;13.50;;;;;11.25;39.90;103483.16;5053741;28;45589;-75
2022/03/18 09:59:09;;;;;;;;;15.75;13.75;;;;;11.18;38.58;103465.28;5053811;28;46056;-73
2022/03/18 10:01:36;;;;;;;;;16.00;13.25;;;;;11.27;39.07;103474.19;5053562;28;45569;-76
2022/03/18 10:04:03;;;;;;;;;14.50;10.50;;;;;11.29;37.63;103476.88;5053784;28;45471;-74
2022/03/18 10:06:29;;;;;;;;;13.50;13.25;;;;;11.33;38.42;103473.25;5052550;28;46449;-76
2022/03/18 10:08:55;;;;;;;;;14.00;12.00;;;;;11.39;39.61;103470.56;5053567;28;46096;-74
2022/03/18 10:11:26;;;;;;;;;13.75;13.25;;;;;11.41;39.47;103471.41;5053455;28;45518;-74
2022/03/18 10:14:00;;;;;;;;;13.25;13.25;;;;;11.53;38.62;103478.53;5053493;28;45415;-76
2022/03/18 10:16:45;;;;;;;;;21.00;17.00;;;;;11.58;37.87;103479.38;5052738;28;45378;-75
2022/03/18 10:19:14;;;;;;;;;12.50;12.25;;;;;11.63;38.60;103482.94;5052620;28;45504;-75
2022/03/18 10:21:57;;;;;;;;;16.00;12.00;;;;;11.69;38.71;103473.03;5040024;28;45367;-76
2022/03/18 10:24:28;;;;;;;;;18.50;13.25;;;;;11.74;39.06;103468.53;5053117;28;45410;-74
2022/03/18 10:27:14;;;;;;;;;23.75;17.25;;;;;11.80;37.60;103469.41;5053054;28;45520;-75
2022/03/18 10:29:41;;;;;;;;;17.75;12.00;;;;;11.79;37.78;103455.09;5031439;28;48497;-76
2022/03/18 10:32:08;;;;;;;;;16.50;13.00;;;;;11.90;37.26;103466.66;5047535;28;45533;-74
2022/03/18 10:37:21;;;;;;;;;17.50;15.50;;;;;11.90;37.75;103445.16;5056401;28;45346;-73
2022/03/18 10:39:48;;;;;;;;;11.75;9.50;;;;;12.01;35.68;103447.72;5056374;28;46082;-76
2022/03/18 10:42:23;;;;;;;;;12.00;10.75;;;;;11.97;36.01;103421.78;5038430;28;45512;-77
2022/03/18 10:44:51;;;;;;;;;14.75;11.25;;;;;12.15;36.10;103435.06;5057192;28;45428;-76
2022/03/18 10:47:41;;;;;;;;;17.25;11.50;;;;;12.24;36.60;103436.78;5061597;28;45445;-75
2022/03/18 10:50:09;;;;;;;;;13.25;10.75;;;;;12.32;35.82;103429.50;5061980;28;45326;-76
2022/03/18 10:52:38;;;;;;;;;12.00;11.75;;;;;12.38;35.73;103441.09;5058645;28;45431;-73
2022/03/18 10:55:25;;;;;;;;;10.75;10.00;;;;;12.47;35.38;103441.00;5067076;28;45328;-79
2022/03/18 10:58:02;;;;;;;;;13.25;11.25;;;;;12.56;34.83;103440.00;5058076;28;45845;-77
2022/03/18 11:00:31;;;;;;;;;11.00;9.50;;;;;12.59;33.72;103425.63;5057154;28;45422;-76
2022/03/18 11:02:58;;;;;;;;;13.00;9.00;;;;;12.73;33.99;103440.69;5056679;28;45346;-75
2022/03/18 11:05:25;;;;;;;;;11.75;10.75;;;;;12.72;34.61;103420.06;5055923;28;45359;-76
2022/03/18 11:07:53;;;;;;;;;19.50;12.50;;;;;12.94;35.02;103439.53;5035445;28;45439;-78
2022/03/18 11:13:06;;;;;;;;;13.75;8.75;;;;;13.08;33.02;103412.44;5055677;28;45493;-77
2022/03/18 11:15:34;;;;;;;;;10.50;9.00;;;;;13.22;33.02;103430.22;5056384;28;45522;-76
2022/03/18 11:18:03;;;;;;;;;12.00;8.25;;;;;13.35;33.36;103428.25;5056055;28;45500;-76
2022/03/18 11:20:32;;;;;;;;;8.50;8.00;;;;;13.50;33.29;103445.97;5055683;28;45385;-76
2022/03/18 11:22:57;;;;;;;;;11.75;11.00;;;;;13.64;32.28;103431.38;5056392;28;45460;-76
2022/03/18 11:25:23;;;;;;;;;11.50;10.50;;;;;13.78;32.45;103425.75;5036605;28;45977;-76
2022/03/18 11:27:51;;;;;;;;;14.25;8.50;;;;;13.94;32.45;103423.69;5055604;28;45619;-76
2022/03/18 11:30:20;;;;;;;;;10.50;10.50;;;;;14.05;31.43;103410.91;5056268;28;45693;-77
2022/03/18 11:33:10;;;;;;;;;12.25;12.25;;;;;14.29;30.96;103418.53;5055271;28;45316;-75
2022/03/18 11:35:48;;;;;;;;;9.00;8.25;;;;;14.53;28.77;103429.84;5056273;28;45327;-76
2022/03/18 11:38:14;;;;;;;;;8.75;7.25;;;;;14.71;28.30;103408.75;5056227;28;45467;-75
2022/03/18 11:40:52;;;;;;;;;7.75;7.75;;;;;15.09;27.47;103424.13;5056012;28;45349;-76
2022/03/18 11:43:33;;;;;;;;;11.75;7.00;;;;;15.40;27.88;103413.50;5055978;28;45386;-76
2022/03/18 11:46:28;;;;;;;;;15.50;9.25;;;;;15.93;27.30;103410.44;5034542;28;45493;-76
2022/03/18 11:48:57;;;;;;;;;14.00;11.00;;;;;16.30;26.59;103399.53;5030873;28;45452;-75
2022/03/18 11:51:29;;;;;;;;;7.75;7.75;;;;;16.61;24.57;103401.34;5055942;28;45430;-77
2022/03/18 11:53:59;;;;;;;;;8.00;8.00;;;;;16.90;24.48;103400.50;5055868;28;45481;-76
2022/03/18 11:56:39;;;;;;;;;9.25;8.75;;;;;17.28;24.00;103387.56;5056059;28;45385;-76
2022/03/18 12:01:52;;;;;;;;;9.50;8.25;;;;;17.80;23.27;103397.63;5053082;28;46125;-76
2022/03/18 12:04:33;;;;;;;;;10.00;8.50;;;;;18.12;23.47;103391.94;5055744;28;45410;-75
2022/03/18 12:07:09;;;;;;;;;7.00;4.75;;;;;18.46;22.51;103396.16;5055586;28;45496;-76
2022/03/18 12:09:47;;;;;;;;;3.50;3.50;;;;;18.77;22.05;103385.06;5055323;28;45495;-76
2022/03/18 12:12:17;;;;;;;;;10.00;8.75;;;;;19.05;20.93;103377.63;5055503;28;45474;-77
2022/03/18 12:14:43;;;;;;;;;7.75;7.75;;;;;19.32;20.68;103377.44;5055310;28;45559;-78
2022/03/18 12:17:09;;;;;;;;;11.25;10.00;;;;;19.69;21.04;103365.94;5055237;28;45303;-76
2022/03/18 12:19:36;;;;;;;;;11.50;10.50;;;;;20.14;20.52;103368.53;5038969;28;45390;-75
2022/03/18 12:22:03;;;;;;;;;13.50;10.00;;;;;20.59;20.73;103352.81;5055238;28;46274;-77
2022/03/18 12:24:32;;;;;;;;;11.75;10.75;;;;;21.05;20.46;103356.97;5055086;28;45168;-74
2022/03/18 12:27:01;;;;;;;;;10.50;9.25;;;;;21.53;20.49;103345.50;5055175;28;45443;-77
2022/03/18 12:29:29;;;;;;;;;6.00;6.00;;;;;22.14;19.75;103358.72;5054915;28;45406;-77
2022/03/18 12:32:13;;;;;;;;;10.50;9.00;;;;;22.59;18.78;103338.97;5036607;28;45599;-77
2022/03/18 12:34:53;;;;;;;;;10.00;10.00;;;;;23.29;19.37;103339.56;5054954;28;45229;-76
2022/03/18 12:37:22;;;;;;;;;10.50;9.00;;;;;23.90;18.48;103339.56;5054982;28;45500;-77
2022/03/18 12:40:09;;;;;;;;;9.50;7.75;;;;;24.42;16.92;103328.09;5054979;28;45552;-76
2022/03/18 12:42:58;;;;;;;;;10.75;8.75;;;;;25.01;16.25;103329.72;5054497;28;46222;-77
2022/03/18 12:45:29;;;;;;;;;8.25;7.00;;;;;25.51;16.45;103319.97;5046812;28;45517;-78
2022/03/18 12:47:56;;;;;;;;;9.75;8.00;;;;;26.17;15.90;103324.53;5054954;28;45430;-78
2022/03/18 12:50:30;;;;;;;;;11.25;11.25;;;;;26.79;15.38;103324.63;5054698;28;45577;-76
2022/03/18 12:52:57;;;;;;;;;12.00;11.00;;;;;27.28;15.64;103316.34;5055107;28;45347;-77
2022/03/18 12:55:24;;;;;;;;;8.75;8.75;;;;;27.68;15.35;103305.91;5054019;28;45205;-76
2022/03/18 12:57:50;;;;;;;;;15.25;10.00;;;;;28.12;14.35;103307.91;5054904;28;45450;-77
2022/03/18 13:00:21;;;;;;;;;9.50;9.50;;;;;28.45;14.46;103312.63;5048468;28;45528;-79
2022/03/18 13:02:49;;;;;;;;;8.25;8.25;;;;;28.55;13.75;103305.34;5033620;28;47466;-78
2022/03/18 13:05:16;;;;;;;;;8.00;8.00;;;;;28.79;13.18;103311.63;5048902;28;45486;-75
2022/03/18 13:07:42;;;;;;;;;10.25;10.00;;;;;29.23;13.46;103295.97;5054272;28;45595;-78
2022/03/18 13:10:08;;;;;;;;;9.00;9.00;;;;;29.61;13.56;103295.47;5053409;28;45457;-77
2022/03/18 13:12:35;;;;;;;;;10.75;10.25;;;;;29.92;13.00;103291.78;5053665;28;47307;-78
2022/03/18 13:15:21;;;;;;;;;9.75;8.75;;;;;30.17;11.96;103295.19;5054457;28;45489;-78
2022/03/18 13:17:47;;;;;;;;;9.00;9.00;;;;;30.27;12.23;103301.66;5053310;28;45527;-77
2022/03/18 13:20:24;;;;;;;;;9.25;7.75;;;;;30.52;12.19;103292.91;5054087;28;45566;-76
2022/03/18 13:22:52;;;;;;;;;8.75;8.50;;;;;30.55;11.85;103287.06;5053563;28;46072;-78
2022/03/18 13:25:18;;;;;;;;;8.50;8.50;;;;;30.87;11.59;103283.28;5053380;28;45508;-76
2022/03/18 13:27:44;;;;;;;;;8.00;8.00;;;;;31.12;12.17;103274.47;5052971;28;45441;-77
2022/03/18 13:32:57;;;;;;;;;8.00;7.25;;;;;31.43;11.08;103272.44;5053112;28;45517;-77
2022/03/18 13:35:24;;;;;;;;;7.25;7.25;;;;;31.53;10.37;103263.09;5034710;28;45281;-78
2022/03/18 13:38:22;;;;;;;;;6.75;5.75;;;;;31.82;10.33;103276.06;5049855;28;45531;-78
2022/03/18 13:40:59;;;;;;;;;4.50;4.50;;;;;31.87;9.32;103265.41;5019729;28;45513;-76
2022/03/18 13:43:29;;;;;;;;;4.00;4.00;;;;;31.89;9.09;103258.69;5053457;28;46291;-77
2022/03/18 13:46:18;;;;;;;;;5.00;5.00;;;;;32.25;9.04;103256.09;5053889;28;45411;-77
2022/03/18 13:48:46;;;;;;;;;4.00;3.25;;;;;32.44;9.21;103250.47;5054001;28;45208;-76
2022/03/18 13:51:29;;;;;;;;;4.75;4.25;;;;;32.51;8.48;103253.50;5053518;28;45440;-77
2022/03/18 13:54:12;;;;;;;;;5.25;5.25;;;;;32.27;8.55;103229.06;5053048;28;45363;-78
2022/03/18 13:56:41;;;;;;;;;4.00;4.00;;;;;32.09;8.49;103241.97;5053693;28;45434;-76
2022/03/18 13:59:11;;;;;;;;;6.50;4.25;;;;;32.07;8.66;103241.28;5032368;28;45471;-78
2022/03/18 14:01:36;;;;;;;;;5.00;5.00;;;;;32.09;8.77;103217.00;5047526;28;45513;-77
2022/03/18 14:04:02;;;;;;;;;4.75;4.75;;;;;32.17;9.07;103233.78;5053595;28;45540;-78
2022/03/18 14:06:27;;;;;;;;;3.00;3.00;;;;;32.33;9.13;103222.06;5052980;28;45349;-77
2022/03/18 14:08:54;;;;;;;;;5.75;5.75;;;;;32.31;8.65;103225.88;5056716;28;45612;-77
2022/03/18 14:14:19;;;;;;;;;8.00;7.00;;;;;32.40;8.44;103220.41;5055901;28;45299;-77
2022/03/18 14:17:07;;;;;;;;;5.25;5.25;;;;;32.23;9.15;103213.78;5043829;28;45493;-77
2022/03/18 14:19:53;;;;;;;;;5.50;5.50;;;;;32.16;9.09;103223.72;5056796;28;45528;-77
2022/03/18 14:22:37;;;;;;;;;9.00;5.75;;;;;32.14;8.96;103217.44;5054508;28;46434;-77
2022/03/18 14:25:12;;;;;;;;;4.75;4.75;;;;;31.91;9.10;103198.34;5045239;28;46601;-78
2022/03/18 14:27:45;;;;;;;;;6.25;6.25;;;;;31.72;9.32;103203.09;5054076;28;46039;-74
2022/03/18 14:30:13;;;;;;;;;7.00;5.50;;;;;31.64;9.78;103195.53;5055492;28;45505;-78
2022/03/18 14:32:43;;;;;;;;;9.50;7.75;;;;;31.78;9.76;103205.28;5055611;28;45367;-78
2022/03/18 14:35:08;;;;;;;;;7.50;6.75;;;;;31.95;9.69;103193.38;5059982;28;46560;-77
2022/03/18 14:37:35;;;;;;;;;7.75;6.75;;;;;32.14;9.94;103185.00;5062285;28;45348;-77
2022/03/18 14:40:02;;;;;;;;;11.00;7.75;;;;;32.30;10.35;103184.38;5064041;28;45358;-76
2022/03/18 14:42:27;;;;;;;;;9.00;7.00;;;;;32.48;11.21;103181.63;5060484;28;45340;-77
2022/03/18 14:44:55;;;;;;;;;12.50;12.50;;;;;32.54;10.77;103190.22;5064404;28;45509;-78
2022/03/18 14:47:21;;;;;;;;;8.00;7.00;;;;;32.60;11.24;103184.03;5060656;28;45242;-79
2022/03/18 14:49:46;;;;;;;;;9.50;9.50;;;;;32.50;11.26;103168.44;5058634;28;45585;-77
2022/03/18 14:52:12;;;;;;;;;9.00;9.00;;;;;32.40;10.98;103182.41;5057447;28;45523;-76
2022/03/18 14:57:21;;;;;;;;;11.00;11.00;;;;;32.40;11.12;103182.41;5057274;28;45243;-76
2022/03/18 14:59:48;;;;;;;;;12.25;11.75;;;;;32.30;11.40;103168.56;5057242;28;45435;-78
2022/03/18 15:02:16;;;;;;;;;12.00;9.75;;;;;32.33;11.46;103172.94;5057126;28;45522;-79
2022/03/18 15:04:43;;;;;;;;;11.75;11.00;;;;;32.20;11.99;103175.19;5056386;28;46234;-77
2022/03/18 15:07:08;;;;;;;;;10.00;10.00;;;;;31.99;12.14;103163.41;5055942;28;45350;-75
2022/03/18 15:09:34;;;;;;;;;17.50;13.00;;;;;31.70;11.99;103169.97;5056947;28;45368;-77
2022/03/18 15:11:59;;;;;;;;;9.00;9.00;;;;;31.29;12.33;103173.06;5056406;28;45472;-79
2022/03/18 15:14:25;;;;;;;;;9.75;9.75;;;;;31.20;12.59;103186.78;5056456;28;45546;-79
2022/03/18 15:16:51;;;;;;;;;8.75;8.75;;;;;31.02;12.40;103159.91;5055794;28;45196;-76
2022/03/18 15:19:17;;;;;;;;;15.25;12.00;;;;;31.11;12.06;103175.72;5037476;28;45276;-77
2022/03/18 15:21:42;;;;;;;;;10.50;7.75;;;;;30.95;12.35;103164.31;5055923;28;45553;-77
2022/03/18 15:24:08;;;;;;;;;11.00;11.00;;;;;30.86;12.16;103174.34;5038061;28;47859;-77
2022/03/18 15:26:37;;;;;;;;;14.75;14.00;;;;;30.73;12.89;103170.97;5056545;28;45467;-77
2022/03/18 15:29:04;;;;;;;;;13.75;12.75;;;;;30.35;12.22;103166.22;5035162;28;45450;-75
2022/03/18 15:31:30;;;;;;;;;15.25;13.75;;;;;30.28;12.64;103179.75;5037056;28;47155;-76
2022/03/18 15:33:57;;;;;;;;;14.75;11.75;;;;;30.09;12.17;103157.53;5053748;28;45498;-78
2022/03/18 15:36:22;;;;;;;;;12.50;10.75;;;;;29.84;12.86;103152.44;5057500;28;45384;-77
2022/03/18 15:38:48;;;;;;;;;13.50;11.00;;;;;29.65;12.82;103164.25;5039036;28;45518;-77
2022/03/18 15:41:13;;;;;;;;;13.00;11.75;;;;;29.54;13.46;103161.56;5059236;28;45480;-78
2022/03/18 15:43:40;;;;;;;;;9.50;9.00;;;;;29.58;13.36;103160.28;5057413;28;46576;-78
2022/03/18 15:46:07;;;;;;;;;12.75;11.25;;;;;29.48;13.89;103160.22;5056935;28;45333;-76
2022/03/18 15:48:32;;;;;;;;;14.00;11.00;;;;;29.46;13.68;103153.94;5038765;28;45425;-76
2022/03/18 15:51:00;;;;;;;;;12.50;12.50;;;;;29.40;13.21;103148.97;5056772;28;45264;-76
2022/03/18 15:53:26;;;;;;;;;13.75;12.50;;;;;29.18;13.18;103143.50;5055549;28;45810;-77
2022/03/18 15:55:52;;;;;;;;;17.00;13.00;;;;;28.96;13.51;103137.09;5056298;28;45394;-74
2022/03/18 15:58:17;;;;;;;;;14.50;11.25;;;;;28.80;14.19;103138.56;5056435;28;45445;-77
2022/03/18 16:00:43;;;;;;;;;12.00;10.00;;;;;28.77;14.21;103136.94;5056475;28;45151;-76
2022/03/18 16:03:08;;;;;;;;;8.00;8.00;;;;;28.56;14.02;103122.19;5055590;28;45461;-74
2022/03/18 16:05:37;;;;;;;;;10.75;10.50;;;;;28.34;14.19;103106.53;5056641;28;45417;-76
2022/03/18 16:08:03;;;;;;;;;10.25;9.25;;;;;28.17;14.73;103132.78;5034758;28;45398;-77
2022/03/18 16:10:29;;;;;;;;;8.00;8.00;;;;;27.92;14.28;103138.53;5055783;28;45510;-76
2022/03/18 16:12:54;;;;;;;;;14.50;11.00;;;;;27.78;14.01;103138.78;5055514;28;45404;-76
2022/03/18 16:15:22;;;;;;;;;11.00;10.00;;;;;27.68;13.80;103143.28;5054829;28;45432;-77
2022/03/18 16:17:48;;;;;;;;;9.00;9.00;;;;;27.66;14.84;103157.19;5053761;28;45356;-77
2022/03/18 16:20:15;;;;;;;;;13.25;10.75;;;;;27.57;14.20;103140.50;5054524;28;45930;-74
2022/03/18 16:22:42;;;;;;;;;9.25;9.25;;;;;27.56;14.51;103120.34;5054039;28;47235;-76
2022/03/18 16:25:10;;;;;;;;;11.75;8.00;;;;;27.44;14.51;103135.06;5053403;28;45559;-77
2022/03/18 16:27:36;;;;;;;;;7.50;7.50;;;;;27.14;14.42;103121.84;5055224;28;45409;-77
2022/03/18 16:30:11;;;;;;;;;9.50;7.75;;;;;26.84;15.43;103132.47;5054069;28;45448;-74
2022/03/18 16:32:38;;;;;;;;;10.75;9.00;;;;;26.56;15.41;103134.56;5054303;28;47133;-78
2022/03/18 16:35:04;;;;;;;;;9.50;9.50;;;;;26.36;15.96;103129.72;5055234;28;45386;-75
2022/03/18 16:37:30;;;;;;;;;10.75;10.75;;;;;26.15;15.78;103140.41;5054010;28;46062;-76
2022/03/18 16:39:56;;;;;;;;;11.00;8.50;;;;;25.82;15.65;103138.25;5054693;28;45286;-77
2022/03/18 16:42:21;;;;;;;;;7.25;7.25;;;;;25.64;16.21;103136.84;5049053;28;46012;-75
2022/03/18 16:44:47;;;;;;;;;9.25;5.75;;;;;25.29;16.67;103141.16;5054474;28;45475;-77
2022/03/18 16:49:56;;;;;;;;;9.50;8.00;;;;;24.64;16.73;103132.84;5054740;28;45514;-78
2022/03/18 16:52:21;;;;;;;;;8.75;8.75;;;;;24.47;17.41;103139.47;5054508;28;45401;-76
2022/03/18 16:54:49;;;;;;;;;8.75;8.25;;;;;24.22;17.36;103134.72;5054751;28;45441;-74
2022/03/18 16:57:15;;;;;;;;;9.50;7.25;;;;;24.10;17.34;103139.09;5054596;28;45565;-73
2022/03/18 16:59:44;;;;;;;;;9.25;8.25;;;;;23.91;17.84;103130.31;5054746;28;45562;-78
2022/03/18 17:02:10;;;;;;;;;10.00;9.00;;;;;23.83;18.03;103150.97;5050011;28;45668;-76
2022/03/18 17:04:40;;;;;;;;;10.25;8.25;;;;;23.67;18.12;103143.72;5046987;28;47172;-76
2022/03/18 17:07:07;;;;;;;;;10.25;9.25;;;;;23.66;18.24;103147.44;5041556;28;45358;-74
2022/03/18 17:09:33;;;;;;;;;10.25;9.75;;;;;23.50;18.34;103145.75;5036755;28;46431;-77
2022/03/18 17:12:01;;;;;;;;;12.75;11.25;;;;;23.38;18.39;103145.53;5044994;28;47139;-72
2022/03/18 17:14:28;;;;;;;;;10.25;10.00;;;;;23.15;18.37;103140.56;5035861;28;45348;-77
2022/03/18 17:16:54;;;;;;;;;9.75;9.75;;;;;23.03;18.37;103157.75;5054083;28;45572;-76